createdAt,value
2017-08-18T00:00:21.301Z,112.50
2017-08-18T00:01:21.241Z,157.50
2017-08-18T00:02:21.304Z,112.50
2017-08-18T00:03:21.301Z,135.00
2017-08-18T00:04:21.303Z,90.00
2017-08-18T00:05:21.302Z,90.00
2017-08-18T00:06:21.269Z,157.50
2017-08-18T00:07:21.245Z,90.00
2017-08-18T00:08:21.250Z,90.00
2017-08-18T00:09:21.270Z,112.50
2017-08-18T00:10:21.274Z,135.00
2017-08-18T00:11:21.247Z,112.50
2017-08-18T00:12:21.277Z,90.00
2017-08-18T00:13:21.244Z,135.00
2017-08-18T00:14:21.275Z,90.00
2017-08-18T00:15:21.277Z,90.00
2017-08-18T00:16:21.253Z,112.50
2017-08-18T00:17:21.260Z,112.50
2017-08-18T00:18:21.355Z,112.50
2017-08-18T00:19:21.257Z,67.50
2017-08-18T00:20:21.351Z,90.00
2017-08-18T00:21:21.311Z,157.50
2017-08-18T00:22:21.263Z,67.50
2017-08-18T00:23:21.346Z,112.50
2017-08-18T00:24:21.324Z,157.50
2017-08-18T00:25:21.262Z,90.00
2017-08-18T00:26:21.287Z,157.50
2017-08-18T00:27:21.326Z,112.50
2017-08-18T00:28:21.291Z,135.00
2017-08-18T00:29:21.282Z,90.00
2017-08-18T00:30:21.285Z,135.00
2017-08-18T00:31:21.269Z,135.00
2017-08-18T00:32:21.288Z,135.00
2017-08-18T00:33:21.245Z,112.50
2017-08-18T00:34:21.264Z,112.50
2017-08-18T00:35:21.266Z,157.50
2017-08-18T00:36:21.275Z,157.50
2017-08-18T00:37:21.310Z,202.50
2017-08-18T00:38:21.266Z,90.00
2017-08-18T00:39:21.303Z,157.50
2017-08-18T00:40:21.273Z,67.50
2017-08-18T00:41:21.270Z,45.00
2017-08-18T00:42:21.269Z,45.00
2017-08-18T00:43:21.323Z,90.00
2017-08-18T00:44:21.340Z,157.50
2017-08-18T00:45:21.298Z,157.50
2017-08-18T00:46:21.179Z,180.00
2017-08-18T00:47:21.173Z,157.50
2017-08-18T00:48:21.265Z,135.00
2017-08-18T00:49:21.206Z,45.00
2017-08-18T00:50:21.274Z,22.50
2017-08-18T00:51:21.169Z,22.50
2017-08-18T00:52:21.176Z,22.50
2017-08-18T00:53:21.243Z,22.50
2017-08-18T00:54:21.172Z,0.00
2017-08-18T00:55:21.266Z,67.50
2017-08-18T00:56:21.338Z,157.50
2017-08-18T00:57:21.269Z,22.50
2017-08-18T00:58:21.303Z,135.00
2017-08-18T00:59:21.302Z,135.00
2017-08-18T01:00:21.306Z,45.00
2017-08-18T01:01:21.341Z,67.50
2017-08-18T01:02:21.276Z,67.50
2017-08-18T01:03:21.276Z,90.00
2017-08-18T01:04:21.338Z,90.00
2017-08-18T01:05:21.280Z,112.50
2017-08-18T01:06:21.276Z,157.50
2017-08-18T01:07:21.267Z,157.50
2017-08-18T01:08:21.267Z,157.50
2017-08-18T01:09:21.221Z,180.00
2017-08-18T01:10:21.303Z,157.50
2017-08-18T01:11:21.285Z,112.50
2017-08-18T01:12:21.338Z,157.50
2017-08-18T01:13:21.273Z,135.00
2017-08-18T01:14:21.223Z,112.50
2017-08-18T01:15:21.221Z,90.00
2017-08-18T01:16:21.295Z,112.50
2017-08-18T01:17:21.356Z,157.50
2017-08-18T01:18:21.384Z,157.50
2017-08-18T01:19:21.389Z,157.50
2017-08-18T01:20:21.320Z,157.50
2017-08-18T01:21:21.384Z,157.50
2017-08-18T01:22:21.359Z,112.50
2017-08-18T01:23:21.390Z,180.00
2017-08-18T01:24:21.384Z,180.00
2017-08-18T01:25:21.319Z,180.00
2017-08-18T01:26:21.364Z,180.00
2017-08-18T01:27:21.302Z,135.00
2017-08-18T01:28:21.388Z,180.00
2017-08-18T01:29:21.363Z,135.00
2017-08-18T01:30:21.320Z,90.00
2017-08-18T01:31:21.388Z,112.50
2017-08-18T01:32:21.298Z,157.50
2017-08-18T01:33:21.334Z,157.50
2017-08-18T01:34:21.329Z,157.50
2017-08-18T01:35:21.327Z,180.00
2017-08-18T01:36:21.390Z,135.00
2017-08-18T01:37:21.359Z,157.50
2017-08-18T01:38:21.327Z,157.50
2017-08-18T01:39:21.365Z,180.00
2017-08-18T01:40:21.358Z,202.50
2017-08-18T01:41:21.329Z,157.50
2017-08-18T01:42:21.362Z,157.50
2017-08-18T01:43:21.330Z,45.00
2017-08-18T01:44:21.359Z,22.50
2017-08-18T01:45:21.359Z,22.50
2017-08-18T01:46:21.495Z,22.50
2017-08-18T01:47:21.361Z,22.50
2017-08-18T01:48:21.363Z,22.50
2017-08-18T01:49:21.367Z,45.00
2017-08-18T01:50:21.307Z,67.50
2017-08-18T01:51:21.366Z,67.50
2017-08-18T01:52:21.309Z,90.00
2017-08-18T01:53:21.337Z,180.00
2017-08-18T01:54:21.337Z,180.00
2017-08-18T01:55:21.393Z,180.00
2017-08-18T01:56:21.369Z,157.50
2017-08-18T01:57:21.350Z,157.50
2017-08-18T01:58:21.317Z,157.50
2017-08-18T01:59:21.315Z,157.50
2017-08-18T02:00:21.352Z,157.50
2017-08-18T02:01:21.390Z,157.50
2017-08-18T02:02:21.317Z,112.50
2017-08-18T02:03:21.320Z,180.00
2017-08-18T02:04:21.417Z,180.00
2017-08-18T02:05:21.355Z,180.00
2017-08-18T02:06:21.396Z,180.00
2017-08-18T02:07:21.349Z,157.50
2017-08-18T02:08:21.298Z,135.00
2017-08-18T02:09:21.296Z,90.00
2017-08-18T02:10:21.320Z,45.00
2017-08-18T02:11:21.344Z,67.50
2017-08-18T02:12:21.321Z,90.00
2017-08-18T02:13:21.305Z,67.50
2017-08-18T02:14:21.345Z,67.50
2017-08-18T02:15:21.337Z,67.50
2017-08-18T02:16:21.331Z,67.50
2017-08-18T02:17:21.385Z,45.00
2017-08-18T02:18:21.421Z,45.00
2017-08-18T02:19:21.340Z,135.00
2017-08-18T02:20:21.387Z,112.50
2017-08-18T02:21:21.354Z,67.50
2017-08-18T02:22:21.363Z,67.50
2017-08-18T02:23:21.384Z,45.00
2017-08-18T02:24:21.457Z,67.50
2017-08-18T02:25:21.373Z,157.50
2017-08-18T02:26:21.338Z,135.00
2017-08-18T02:27:21.336Z,157.50
2017-08-18T02:28:21.333Z,90.00
2017-08-18T02:29:21.387Z,45.00
2017-08-18T02:30:21.429Z,45.00
2017-08-18T02:31:21.336Z,22.50
2017-08-18T02:32:21.425Z,45.00
2017-08-18T02:33:21.341Z,135.00
2017-08-18T02:34:21.335Z,22.50
2017-08-18T02:35:21.428Z,157.50
2017-08-18T02:36:21.376Z,157.50
2017-08-18T02:37:21.316Z,90.00
2017-08-18T02:38:21.365Z,67.50
2017-08-18T02:39:21.351Z,90.00
2017-08-18T02:40:21.364Z,90.00
2017-08-18T02:41:21.337Z,90.00
2017-08-18T02:42:21.364Z,112.50
2017-08-18T02:43:21.344Z,135.00
2017-08-18T02:44:21.321Z,112.50
2017-08-18T02:45:21.346Z,135.00
2017-08-18T02:46:21.343Z,135.00
2017-08-18T02:47:21.398Z,157.50
2017-08-18T02:48:21.338Z,135.00
2017-08-18T02:49:21.368Z,202.50
2017-08-18T02:50:21.370Z,180.00
2017-08-18T02:51:21.401Z,135.00
2017-08-18T02:52:21.341Z,90.00
2017-08-18T02:53:21.344Z,90.00
2017-08-18T02:54:21.343Z,90.00
2017-08-18T02:55:21.347Z,112.50
2017-08-18T02:56:21.374Z,67.50
2017-08-18T02:57:21.350Z,45.00
2017-08-18T02:58:21.448Z,45.00
2017-08-18T02:59:21.359Z,45.00
2017-08-18T03:00:21.379Z,67.50
2017-08-18T03:01:21.411Z,90.00
2017-08-18T03:02:21.390Z,112.50
2017-08-18T03:03:21.453Z,112.50
2017-08-18T03:04:21.385Z,112.50
2017-08-18T03:05:21.416Z,112.50
2017-08-18T03:06:21.407Z,135.00
2017-08-18T03:07:21.358Z,180.00
2017-08-18T03:08:21.429Z,225.00
2017-08-18T03:09:21.394Z,225.00
2017-08-18T03:10:21.412Z,67.50
2017-08-18T03:11:21.449Z,67.50
2017-08-18T03:12:21.417Z,90.00
2017-08-18T03:13:21.360Z,90.00
2017-08-18T03:14:21.421Z,90.00
2017-08-18T03:15:21.389Z,45.00
2017-08-18T03:16:21.457Z,45.00
2017-08-18T03:17:21.355Z,90.00
2017-08-18T03:18:21.386Z,90.00
2017-08-18T03:19:21.414Z,67.50
2017-08-18T03:20:21.360Z,90.00
2017-08-18T03:21:21.387Z,90.00
2017-08-18T03:22:21.419Z,90.00
2017-08-18T03:23:21.421Z,90.00
2017-08-18T03:24:21.359Z,90.00
2017-08-18T03:25:21.366Z,90.00
2017-08-18T03:26:21.361Z,90.00
2017-08-18T03:27:21.403Z,90.00
2017-08-18T03:28:21.399Z,112.50
2017-08-18T03:29:21.366Z,135.00
2017-08-18T03:30:21.371Z,135.00
2017-08-18T03:31:21.442Z,157.50
2017-08-18T03:32:21.466Z,157.50
2017-08-18T03:33:21.474Z,180.00
2017-08-18T03:34:21.398Z,157.50
2017-08-18T03:35:21.400Z,67.50
2017-08-18T03:36:21.507Z,22.50
2017-08-18T03:37:21.403Z,270.00
2017-08-18T03:38:21.413Z,247.50
2017-08-18T03:39:21.408Z,67.50
2017-08-18T03:40:21.450Z,22.50
2017-08-18T03:41:21.490Z,22.50
2017-08-18T03:42:21.474Z,45.00
2017-08-18T03:43:21.431Z,22.50
2017-08-18T03:44:21.469Z,135.00
2017-08-18T03:45:21.407Z,90.00
2017-08-18T03:46:21.476Z,45.00
2017-08-18T03:47:21.454Z,45.00
2017-08-18T03:48:21.403Z,67.50
2017-08-18T03:49:21.395Z,45.00
2017-08-18T03:50:21.433Z,45.00
2017-08-18T03:51:21.406Z,45.00
2017-08-18T03:52:21.399Z,45.00
2017-08-18T03:53:21.357Z,45.00
2017-08-18T03:54:21.378Z,22.50
2017-08-18T03:55:21.408Z,67.50
2017-08-18T03:56:21.405Z,45.00
2017-08-18T03:57:21.413Z,67.50
2017-08-18T03:58:21.480Z,67.50
2017-08-18T03:59:21.425Z,90.00
2017-08-18T04:00:21.417Z,112.50
2017-08-18T04:01:21.385Z,112.50
2017-08-18T04:02:21.388Z,112.50
2017-08-18T04:03:21.390Z,90.00
2017-08-18T04:04:21.486Z,90.00
2017-08-18T04:05:21.429Z,90.00
2017-08-18T04:06:21.443Z,112.50
2017-08-18T04:07:21.471Z,90.00
2017-08-18T04:08:21.389Z,45.00
2017-08-18T04:09:21.413Z,22.50
2017-08-18T04:10:21.449Z,22.50
2017-08-18T04:11:21.415Z,67.50
2017-08-18T04:12:21.472Z,45.00
2017-08-18T04:13:21.389Z,22.50
2017-08-18T04:14:21.390Z,45.00
2017-08-18T04:15:21.417Z,45.00
2017-08-18T04:16:21.450Z,22.50
2017-08-18T04:17:21.424Z,67.50
2017-08-18T04:18:21.433Z,67.50
2017-08-18T04:19:21.397Z,90.00
2017-08-18T04:20:21.461Z,157.50
2017-08-18T04:21:21.400Z,202.50
2017-08-18T04:22:21.472Z,202.50
2017-08-18T04:23:21.469Z,225.00
2017-08-18T04:24:21.404Z,270.00
2017-08-18T04:25:21.467Z,315.00
2017-08-18T04:26:21.459Z,270.00
2017-08-18T04:27:21.422Z,315.00
2017-08-18T04:28:21.477Z,225.00
2017-08-18T04:29:21.408Z,67.50
2017-08-18T04:30:21.460Z,90.00
2017-08-18T04:31:21.462Z,67.50
2017-08-18T04:32:21.474Z,22.50
2017-08-18T04:33:21.444Z,22.50
2017-08-18T04:34:21.468Z,22.50
2017-08-18T04:35:21.411Z,22.50
2017-08-18T04:36:21.429Z,112.50
2017-08-18T04:37:21.441Z,202.50
2017-08-18T04:38:21.432Z,157.50
2017-08-18T04:39:21.431Z,180.00
2017-08-18T04:40:21.442Z,157.50
2017-08-18T04:41:21.414Z,157.50
2017-08-18T04:42:21.502Z,180.00
2017-08-18T04:43:21.476Z,180.00
2017-08-18T04:44:21.412Z,157.50
2017-08-18T04:45:21.474Z,135.00
2017-08-18T04:46:21.439Z,90.00
2017-08-18T04:47:21.418Z,90.00
2017-08-18T04:48:21.452Z,90.00
2017-08-18T04:49:21.475Z,67.50
2017-08-18T04:50:21.450Z,112.50
2017-08-18T04:51:21.418Z,90.00
2017-08-18T04:52:21.419Z,112.50
2017-08-18T04:53:21.423Z,135.00
2017-08-18T04:54:21.456Z,67.50
2017-08-18T04:55:21.420Z,67.50
2017-08-18T04:56:21.516Z,90.00
2017-08-18T04:57:21.482Z,67.50
2017-08-18T04:58:21.624Z,67.50
2017-08-18T04:59:21.496Z,67.50
2017-08-18T05:00:21.519Z,45.00
2017-08-18T05:01:21.481Z,67.50
2017-08-18T05:02:21.429Z,90.00
2017-08-18T05:03:21.424Z,112.50
2017-08-18T05:04:21.518Z,112.50
2017-08-18T05:05:21.450Z,157.50
2017-08-18T05:06:21.536Z,90.00
2017-08-18T05:07:21.445Z,67.50
2017-08-18T05:08:21.485Z,90.00
2017-08-18T05:09:21.515Z,112.50
2017-08-18T05:10:21.503Z,135.00
2017-08-18T05:11:21.516Z,180.00
2017-08-18T05:12:21.461Z,202.50
2017-08-18T05:13:21.495Z,180.00
2017-08-18T05:14:21.518Z,180.00
2017-08-18T05:15:21.486Z,180.00
2017-08-18T05:16:21.428Z,180.00
2017-08-18T05:17:21.452Z,180.00
2017-08-18T05:18:21.449Z,157.50
2017-08-18T05:19:21.524Z,157.50
2017-08-18T05:20:21.424Z,135.00
2017-08-18T05:21:21.452Z,67.50
2017-08-18T05:22:21.454Z,112.50
2017-08-18T05:23:21.490Z,157.50
2017-08-18T05:24:21.497Z,135.00
2017-08-18T05:25:21.456Z,157.50
2017-08-18T05:26:21.492Z,157.50
2017-08-18T05:27:21.427Z,67.50
2017-08-18T05:28:21.426Z,67.50
2017-08-18T05:29:21.457Z,157.50
2017-08-18T05:30:21.456Z,135.00
2017-08-18T05:31:21.457Z,22.50
2017-08-18T05:32:21.494Z,180.00
2017-08-18T05:33:21.460Z,202.50
2017-08-18T05:34:21.462Z,112.50
2017-08-18T05:35:21.457Z,180.00
2017-08-18T05:36:21.459Z,67.50
2017-08-18T05:37:21.474Z,135.00
2017-08-18T05:38:21.464Z,202.50
2017-08-18T05:39:21.535Z,180.00
2017-08-18T05:40:21.481Z,67.50
2017-08-18T05:41:21.468Z,22.50
2017-08-18T05:42:21.447Z,90.00
2017-08-18T05:43:21.470Z,112.50
2017-08-18T05:44:21.520Z,67.50
2017-08-18T05:45:21.448Z,90.00
2017-08-18T05:46:21.487Z,90.00
2017-08-18T05:47:21.459Z,157.50
2017-08-18T05:48:21.415Z,135.00
2017-08-18T05:49:21.464Z,90.00
2017-08-18T05:50:21.473Z,112.50
2017-08-18T05:51:21.469Z,112.50
2017-08-18T05:52:21.464Z,157.50
2017-08-18T05:53:21.400Z,157.50
2017-08-18T05:54:21.476Z,135.00
2017-08-18T05:55:21.407Z,157.50
2017-08-18T05:56:21.429Z,90.00
2017-08-18T05:57:21.451Z,90.00
2017-08-18T05:58:21.431Z,157.50
2017-08-18T05:59:21.422Z,157.50
2017-08-18T06:00:21.487Z,157.50
2017-08-18T06:01:21.424Z,90.00
2017-08-18T06:02:21.476Z,135.00
2017-08-18T06:03:21.492Z,157.50
2017-08-18T06:04:21.482Z,180.00
2017-08-18T06:05:21.464Z,180.00
2017-08-18T06:06:21.479Z,202.50
2017-08-18T06:07:21.453Z,180.00
2017-08-18T06:08:21.456Z,157.50
2017-08-18T06:09:21.441Z,67.50
2017-08-18T06:10:21.440Z,22.50
2017-08-18T06:11:21.458Z,22.50
2017-08-18T06:12:21.473Z,45.00
2017-08-18T06:13:21.475Z,45.00
2017-08-18T06:14:21.456Z,22.50
2017-08-18T06:15:21.442Z,45.00
2017-08-18T06:16:21.459Z,45.00
2017-08-18T06:17:21.500Z,22.50
2017-08-18T06:18:21.543Z,90.00
2017-08-18T06:19:21.523Z,67.50
2017-08-18T06:20:21.490Z,157.50
2017-08-18T06:21:21.486Z,225.00
2017-08-18T06:22:21.489Z,112.50
2017-08-18T06:23:21.489Z,157.50
2017-08-18T06:24:21.524Z,180.00
2017-08-18T06:25:21.459Z,157.50
2017-08-18T06:26:21.458Z,157.50
2017-08-18T06:27:21.460Z,202.50
2017-08-18T06:28:21.492Z,202.50
2017-08-18T06:29:21.534Z,202.50
2017-08-18T06:30:21.465Z,225.00
2017-08-18T06:31:21.545Z,202.50
2017-08-18T06:32:21.535Z,180.00
2017-08-18T06:33:21.527Z,292.50
2017-08-18T06:34:21.528Z,270.00
2017-08-18T06:35:21.499Z,315.00
2017-08-18T06:36:21.532Z,270.00
2017-08-18T06:37:21.466Z,270.00
2017-08-18T06:38:21.537Z,292.50
2017-08-18T06:39:21.573Z,202.50
2017-08-18T06:40:21.578Z,202.50
2017-08-18T06:41:21.571Z,45.00
2017-08-18T06:42:21.512Z,112.50
2017-08-18T06:43:21.481Z,67.50
2017-08-18T06:44:21.521Z,45.00
2017-08-18T06:45:21.539Z,67.50
2017-08-18T06:46:21.517Z,22.50
2017-08-18T06:47:21.518Z,225.00
2017-08-18T06:48:21.548Z,292.50
2017-08-18T06:49:21.490Z,202.50
2017-08-18T06:50:21.520Z,180.00
2017-08-18T06:51:21.544Z,180.00
2017-08-18T06:52:21.528Z,180.00
2017-08-18T06:53:21.521Z,157.50
2017-08-18T06:54:21.525Z,67.50
2017-08-18T06:55:21.492Z,67.50
2017-08-18T06:56:21.487Z,67.50
2017-08-18T06:57:21.520Z,45.00
2017-08-18T06:58:21.489Z,45.00
2017-08-18T06:59:21.493Z,135.00
2017-08-18T07:00:21.587Z,157.50
2017-08-18T07:01:21.566Z,67.50
2017-08-18T07:02:21.496Z,112.50
2017-08-18T07:03:21.494Z,157.50
2017-08-18T07:04:21.493Z,112.50
2017-08-18T07:05:21.590Z,112.50
2017-08-18T07:06:21.564Z,135.00
2017-08-18T07:07:21.568Z,90.00
2017-08-18T07:08:21.531Z,67.50
2017-08-18T07:09:21.534Z,112.50
2017-08-18T07:10:21.554Z,112.50
2017-08-18T07:11:21.502Z,157.50
2017-08-18T07:12:21.524Z,180.00
2017-08-18T07:13:21.538Z,202.50
2017-08-18T07:14:21.504Z,157.50
2017-08-18T07:15:21.576Z,90.00
2017-08-18T07:16:21.506Z,45.00
2017-08-18T07:17:21.504Z,67.50
2017-08-18T07:18:22.629Z,67.50
2017-08-18T07:20:21.543Z,90.00
2017-08-18T07:21:21.530Z,67.50
2017-08-18T07:22:21.598Z,67.50
2017-08-18T07:23:21.506Z,90.00
2017-08-18T07:24:21.567Z,22.50
2017-08-18T07:25:21.510Z,45.00
2017-08-18T07:26:21.539Z,292.50
2017-08-18T07:27:21.541Z,270.00
2017-08-18T07:28:21.570Z,157.50
2017-08-18T07:29:21.582Z,337.50
2017-08-18T07:30:21.513Z,22.50
2017-08-18T07:31:21.535Z,135.00
2017-08-18T07:32:21.586Z,202.50
2017-08-18T07:33:21.606Z,225.00
2017-08-18T07:34:21.544Z,112.50
2017-08-18T07:35:21.510Z,135.00
2017-08-18T07:36:21.547Z,135.00
2017-08-18T07:37:21.517Z,180.00
2017-08-18T07:38:21.578Z,315.00
2017-08-18T07:39:21.603Z,337.50
2017-08-18T07:40:21.601Z,180.00
2017-08-18T07:41:21.613Z,22.50
2017-08-18T07:42:21.517Z,45.00
2017-08-18T07:43:21.512Z,67.50
2017-08-18T07:44:21.579Z,90.00
2017-08-18T07:45:21.518Z,22.50
2017-08-18T07:46:21.582Z,180.00
2017-08-18T07:47:21.575Z,247.50
2017-08-18T07:48:21.492Z,202.50
2017-08-18T07:49:21.530Z,180.00
2017-08-18T07:50:21.542Z,112.50
2017-08-18T07:51:21.517Z,135.00
2017-08-18T07:52:21.540Z,90.00
2017-08-18T07:53:21.541Z,67.50
2017-08-18T07:54:21.731Z,22.50
2017-08-18T07:55:21.497Z,90.00
2017-08-18T07:56:21.508Z,247.50
2017-08-18T07:57:21.520Z,202.50
2017-08-18T07:58:21.496Z,337.50
2017-08-18T07:59:21.536Z,292.50
2017-08-18T08:00:21.525Z,247.50
2017-08-18T08:01:21.538Z,292.50
2017-08-18T08:02:21.592Z,315.00
2017-08-18T08:03:21.554Z,270.00
2017-08-18T08:04:21.536Z,247.50
2017-08-18T08:05:21.550Z,292.50
2017-08-18T08:06:21.538Z,202.50
2017-08-18T08:07:21.565Z,180.00
2017-08-18T08:08:21.532Z,180.00
2017-08-18T08:09:21.578Z,157.50
2017-08-18T08:10:21.625Z,90.00
2017-08-18T08:11:21.532Z,157.50
2017-08-18T08:12:21.586Z,157.50
2017-08-18T08:13:21.557Z,135.00
2017-08-18T08:14:21.531Z,45.00
2017-08-18T08:15:21.597Z,135.00
2017-08-18T08:16:21.592Z,270.00
2017-08-18T08:17:21.560Z,202.50
2017-08-18T08:18:21.610Z,202.50
2017-08-18T08:19:21.559Z,180.00
2017-08-18T08:20:21.599Z,202.50
2017-08-18T08:21:21.543Z,180.00
2017-08-18T08:22:21.568Z,202.50
2017-08-18T08:23:21.653Z,202.50
2017-08-18T08:24:21.613Z,202.50
2017-08-18T08:25:21.576Z,292.50
2017-08-18T08:26:21.565Z,270.00
2017-08-18T08:27:21.609Z,247.50
2017-08-18T08:28:21.606Z,247.50
2017-08-18T08:29:21.634Z,270.00
2017-08-18T08:30:21.573Z,247.50
2017-08-18T08:31:21.551Z,247.50
2017-08-18T08:32:21.637Z,292.50
2017-08-18T08:33:21.587Z,292.50
2017-08-18T08:34:21.598Z,157.50
2017-08-18T08:35:21.586Z,270.00
2017-08-18T08:36:21.576Z,202.50
2017-08-18T08:37:21.586Z,225.00
2017-08-18T08:38:21.553Z,270.00
2017-08-18T08:39:21.549Z,247.50
2017-08-18T08:40:21.642Z,247.50
2017-08-18T08:41:21.584Z,225.00
2017-08-18T08:42:21.587Z,112.50
2017-08-18T08:43:21.587Z,157.50
2017-08-18T08:44:21.557Z,135.00
2017-08-18T08:45:21.608Z,157.50
2017-08-18T08:46:21.585Z,157.50
2017-08-18T08:47:21.553Z,225.00
2017-08-18T08:48:21.650Z,270.00
2017-08-18T08:49:21.556Z,247.50
2017-08-18T08:50:21.584Z,225.00
2017-08-18T08:51:21.567Z,270.00
2017-08-18T08:52:21.593Z,270.00
2017-08-18T08:53:21.558Z,292.50
2017-08-18T08:54:21.600Z,292.50
2017-08-18T08:55:21.593Z,180.00
2017-08-18T08:56:21.580Z,292.50
2017-08-18T08:57:21.587Z,270.00
2017-08-18T08:58:21.580Z,292.50
2017-08-18T08:59:21.618Z,292.50
2017-08-18T09:00:21.637Z,270.00
2017-08-18T09:01:21.597Z,292.50
2017-08-18T09:02:21.598Z,270.00
2017-08-18T09:03:21.571Z,270.00
2017-08-18T09:04:21.628Z,247.50
2017-08-18T09:05:21.603Z,270.00
2017-08-18T09:06:21.653Z,270.00
2017-08-18T09:07:21.601Z,270.00
2017-08-18T09:08:21.641Z,247.50
2017-08-18T09:09:21.654Z,270.00
2017-08-18T09:10:21.589Z,247.50
2017-08-18T09:11:21.604Z,292.50
2017-08-18T09:12:21.626Z,270.00
2017-08-18T09:13:21.631Z,292.50
2017-08-18T09:14:21.626Z,270.00
2017-08-18T09:15:21.572Z,292.50
2017-08-18T09:16:21.579Z,270.00
2017-08-18T09:17:21.628Z,270.00
2017-08-18T09:18:21.568Z,270.00
2017-08-18T09:19:21.611Z,247.50
2017-08-18T09:20:21.561Z,270.00
2017-08-18T09:21:21.563Z,247.50
2017-08-18T09:22:21.595Z,270.00
2017-08-18T09:23:21.602Z,247.50
2017-08-18T09:24:21.630Z,180.00
2017-08-18T09:25:21.612Z,270.00
2017-08-18T09:26:21.629Z,247.50
2017-08-18T09:27:21.567Z,292.50
2017-08-18T09:28:21.583Z,292.50
2017-08-18T09:29:21.678Z,270.00
2017-08-18T09:30:21.651Z,180.00
2017-08-18T09:31:21.636Z,67.50
2017-08-18T09:32:21.675Z,45.00
2017-08-18T09:33:21.621Z,202.50
2017-08-18T09:34:21.617Z,157.50
2017-08-18T09:35:21.643Z,90.00
2017-08-18T09:36:21.671Z,67.50
2017-08-18T09:37:21.592Z,90.00
2017-08-18T09:38:21.689Z,135.00
2017-08-18T09:39:21.619Z,225.00
2017-08-18T09:40:21.678Z,337.50
2017-08-18T09:41:21.589Z,292.50
2017-08-18T09:42:21.592Z,45.00
2017-08-18T09:43:21.612Z,90.00
2017-08-18T09:44:21.656Z,90.00
2017-08-18T09:45:21.651Z,90.00
2017-08-18T09:46:21.651Z,45.00
2017-08-18T09:47:21.649Z,135.00
2017-08-18T09:48:21.679Z,157.50
2017-08-18T09:49:21.654Z,157.50
2017-08-18T09:50:21.774Z,90.00
2017-08-18T09:51:21.629Z,67.50
2017-08-18T09:52:21.617Z,45.00
2017-08-18T09:53:21.652Z,67.50
2017-08-18T09:54:21.654Z,45.00
2017-08-18T09:55:21.598Z,135.00
2017-08-18T09:56:21.622Z,157.50
2017-08-18T09:57:21.692Z,202.50
2017-08-18T09:58:21.602Z,247.50
2017-08-18T09:59:21.699Z,225.00
2017-08-18T10:00:21.599Z,202.50
2017-08-18T10:01:21.672Z,202.50
2017-08-18T10:02:21.624Z,202.50
2017-08-18T10:03:21.631Z,112.50
2017-08-18T10:04:21.606Z,157.50
2017-08-18T10:05:21.632Z,180.00
2017-08-18T10:06:21.697Z,157.50
2017-08-18T10:07:21.692Z,180.00
2017-08-18T10:08:21.643Z,157.50
2017-08-18T10:09:21.636Z,90.00
2017-08-18T10:10:21.627Z,157.50
2017-08-18T10:11:21.630Z,225.00
2017-08-18T10:12:21.672Z,270.00
2017-08-18T10:13:21.661Z,202.50
2017-08-18T10:14:21.705Z,135.00
2017-08-18T10:15:21.691Z,135.00
2017-08-18T10:16:21.638Z,180.00
2017-08-18T10:17:21.645Z,180.00
2017-08-18T10:18:21.640Z,180.00
2017-08-18T10:19:21.704Z,225.00
2017-08-18T10:20:21.677Z,202.50
2017-08-18T10:21:21.648Z,247.50
2017-08-18T10:22:21.611Z,225.00
2017-08-18T10:23:21.670Z,202.50
2017-08-18T10:24:21.709Z,157.50
2017-08-18T10:25:21.618Z,180.00
2017-08-18T10:26:21.677Z,90.00
2017-08-18T10:27:21.652Z,135.00
2017-08-18T10:28:21.692Z,180.00
2017-08-18T10:29:21.670Z,22.50
2017-08-18T10:30:21.689Z,22.50
2017-08-18T10:31:21.684Z,157.50
2017-08-18T10:32:21.694Z,45.00
2017-08-18T10:33:21.676Z,135.00
2017-08-18T10:34:21.690Z,90.00
2017-08-18T10:35:21.713Z,157.50
2017-08-18T10:36:21.649Z,202.50
2017-08-18T10:37:21.620Z,180.00
2017-08-18T10:38:21.694Z,180.00
2017-08-18T10:39:21.714Z,180.00
2017-08-18T10:40:21.703Z,202.50
2017-08-18T10:41:21.662Z,180.00
2017-08-18T10:42:21.625Z,180.00
2017-08-18T10:43:21.655Z,202.50
2017-08-18T10:44:21.656Z,180.00
2017-08-18T10:45:21.648Z,157.50
2017-08-18T10:46:21.722Z,135.00
2017-08-18T10:47:21.728Z,67.50
2017-08-18T10:48:21.648Z,67.50
2017-08-18T10:49:21.637Z,45.00
2017-08-18T10:50:21.773Z,67.50
2017-08-18T10:51:21.605Z,67.50
2017-08-18T10:52:21.630Z,180.00
2017-08-18T10:53:21.624Z,157.50
2017-08-18T10:54:21.642Z,157.50
2017-08-18T10:55:21.626Z,157.50
2017-08-18T10:56:21.630Z,67.50
2017-08-18T10:57:21.637Z,67.50
2017-08-18T10:58:21.809Z,90.00
2017-08-18T10:59:21.665Z,180.00
2017-08-18T11:00:21.670Z,292.50
2017-08-18T11:01:21.633Z,225.00
2017-08-18T11:02:21.723Z,225.00
2017-08-18T11:03:21.634Z,270.00
2017-08-18T11:04:21.728Z,90.00
2017-08-18T11:05:21.672Z,247.50
2017-08-18T11:06:21.698Z,225.00
2017-08-18T11:07:21.632Z,225.00
2017-08-18T11:08:21.727Z,157.50
2017-08-18T11:09:21.694Z,67.50
2017-08-18T11:10:21.701Z,67.50
2017-08-18T11:11:21.662Z,67.50
2017-08-18T11:12:21.667Z,67.50
2017-08-18T11:13:21.660Z,90.00
2017-08-18T11:14:21.659Z,135.00
2017-08-18T11:15:21.637Z,180.00
2017-08-18T11:16:21.700Z,247.50
2017-08-18T11:17:21.642Z,270.00
2017-08-18T11:18:21.637Z,202.50
2017-08-18T11:19:21.790Z,202.50
2017-08-18T11:20:21.664Z,270.00
2017-08-18T11:21:21.642Z,225.00
2017-08-18T11:22:21.645Z,67.50
2017-08-18T11:23:21.661Z,90.00
2017-08-18T11:24:21.658Z,67.50
2017-08-18T11:25:21.636Z,90.00
2017-08-18T11:26:21.662Z,90.00
2017-08-18T11:27:21.674Z,157.50
2017-08-18T11:28:21.679Z,180.00
2017-08-18T11:29:21.686Z,180.00
2017-08-18T11:30:21.639Z,202.50
2017-08-18T11:31:21.709Z,67.50
2017-08-18T11:32:21.647Z,135.00
2017-08-18T11:33:21.672Z,180.00
2017-08-18T11:34:21.672Z,135.00
2017-08-18T11:35:21.706Z,112.50
2017-08-18T11:36:21.674Z,157.50
2017-08-18T11:37:21.677Z,90.00
2017-08-18T11:38:21.676Z,90.00
2017-08-18T11:39:21.665Z,67.50
2017-08-18T11:40:21.681Z,90.00
2017-08-18T11:41:21.677Z,67.50
2017-08-18T11:42:21.634Z,247.50
2017-08-18T11:43:21.656Z,337.50
2017-08-18T11:44:21.676Z,292.50
2017-08-18T11:45:21.613Z,247.50
2017-08-18T11:46:21.659Z,180.00
2017-08-18T11:47:21.648Z,180.00
2017-08-18T11:48:21.657Z,67.50
2017-08-18T11:49:21.686Z,90.00
2017-08-18T11:50:21.688Z,90.00
2017-08-18T11:51:21.692Z,135.00
2017-08-18T11:52:21.753Z,157.50
2017-08-18T11:53:21.665Z,135.00
2017-08-18T11:54:21.665Z,202.50
2017-08-18T11:55:21.668Z,202.50
2017-08-18T11:56:21.673Z,202.50
2017-08-18T11:57:21.731Z,180.00
2017-08-18T11:58:21.674Z,202.50
2017-08-18T11:59:21.704Z,135.00
2017-08-18T12:00:21.710Z,180.00
2017-08-18T12:01:21.770Z,112.50
2017-08-18T12:02:21.691Z,90.00
2017-08-18T12:03:21.699Z,67.50
2017-08-18T12:04:21.735Z,67.50
2017-08-18T12:05:21.673Z,90.00
2017-08-18T12:06:21.687Z,90.00
2017-08-18T12:07:21.699Z,202.50
2017-08-18T12:08:21.734Z,135.00
2017-08-18T12:09:21.647Z,90.00
2017-08-18T12:10:21.701Z,67.50
2017-08-18T12:11:21.672Z,90.00
2017-08-18T12:12:21.701Z,22.50
2017-08-18T12:13:21.645Z,22.50
2017-08-18T12:14:21.673Z,247.50
2017-08-18T12:15:21.680Z,67.50
2017-08-18T12:16:21.702Z,135.00
2017-08-18T12:17:21.677Z,180.00
2017-08-18T12:18:21.657Z,135.00
2017-08-18T12:19:21.680Z,180.00
2017-08-18T12:20:21.780Z,157.50
2017-08-18T12:21:21.685Z,157.50
2017-08-18T12:22:21.772Z,90.00
2017-08-18T12:23:21.743Z,135.00
2017-08-18T12:24:21.783Z,112.50
2017-08-18T12:25:21.709Z,90.00
2017-08-18T12:26:21.759Z,90.00
2017-08-18T12:27:21.718Z,67.50
2017-08-18T12:28:21.694Z,112.50
2017-08-18T12:29:21.687Z,90.00
2017-08-18T12:30:21.718Z,67.50
2017-08-18T12:31:21.714Z,90.00
2017-08-18T12:32:21.749Z,90.00
2017-08-18T12:33:21.725Z,157.50
2017-08-18T12:34:21.779Z,135.00
2017-08-18T12:35:21.756Z,247.50
2017-08-18T12:36:21.696Z,225.00
2017-08-18T12:37:21.755Z,315.00
2017-08-18T12:38:21.790Z,292.50